»·PEaware :: N8442L KAPA-KEGE

N8442L :: KAPA-KEGE

FLIGHT INFORMATION

Flight Status: Arrived
Operator: Privately registered:
United States
More flights under this callsign
Pilot: Jason B. (28810)
Aircraft: PIPER PA-32 SARATOGA
(PA32)
More flights by this aircraft type
Origin: KAPA Centennial
United States
Destination: KEGE Eagle Co Regl
United States
More flights between these airports :: More routes between these airports
Route: +ROCKI5 DBL
File this flight plan on PilotEdge
Remarks:
Altitude:
(Current/Filed)
17,000ft
Speed:
(Current/Filed)
180kts
Departed: 19-Apr-20 03:21 PM
Arrived: 19-Apr-20 04:04 PM
Distance/Time
Traveled:
95nm/0:43
Distance/Time
To Go:
Arrived

Flight Plot

Page will automatically refresh every two minutes.


Map Options




Map Legend


Flown Route
Filed Route
Departure Airport
Arrival Airport
Navaid (VOR, NDB)
Fix

Horizontal Profiles

Position Reports

Time Latitude Longitude Heading Altitude Ground
Speed
19-Apr-20 14:58 39.568788 -104.848472 360 5888ft 0kts
19-Apr-20 14:59 39.568788 -104.848472 360 5888ft 0kts
19-Apr-20 15:00 39.568788 -104.848472 360 5888ft 0kts
19-Apr-20 15:01 39.568788 -104.848472 0 5888ft 0kts
19-Apr-20 15:02 39.568788 -104.848472 0 5888ft 0kts
19-Apr-20 15:03 39.568788 -104.848472 360 5888ft 0kts
19-Apr-20 15:04 39.568788 -104.848472 0 5888ft 0kts
19-Apr-20 15:05 39.568788 -104.848472 360 5888ft 0kts
19-Apr-20 15:06 39.568788 -104.848472 360 5888ft 0kts
19-Apr-20 15:07 39.568788 -104.848472 0 5888ft 0kts
19-Apr-20 15:08 39.568788 -104.848472 360 5888ft 0kts
19-Apr-20 15:09 39.568788 -104.848472 359 5888ft 0kts
19-Apr-20 15:10 39.568788 -104.848472 359 5888ft 0kts
19-Apr-20 15:11 39.568788 -104.848472 359 5888ft 0kts
19-Apr-20 15:12 39.568788 -104.848472 359 5888ft 0kts
19-Apr-20 15:13 39.568844 -104.849520 25 5888ft 2kts
19-Apr-20 15:14 39.573506 -104.849582 358 5888ft 15kts
19-Apr-20 15:15 39.578257 -104.849794 357 5888ft 17kts
19-Apr-20 15:16 39.583054 -104.850020 358 5888ft 15kts
19-Apr-20 15:17 39.584057 -104.850217 298 5888ft 0kts
19-Apr-20 15:18 39.584057 -104.850217 298 5888ft 0kts
19-Apr-20 15:19 39.584082 -104.850290 287 5888ft 1kts
19-Apr-20 15:20 39.578113 -104.851230 180 5914ft 96kts
19-Apr-20 15:21 39.549303 -104.858394 236 7509ft 113kts
19-Apr-20 15:22 39.564394 -104.902984 295 8046ft 176kts
19-Apr-20 15:23 39.586928 -104.963465 295 8531ft 171kts
19-Apr-20 15:24 39.605645 -105.013721 295 10074ft 140kts
19-Apr-20 15:25 39.621692 -105.056901 295 11624ft 123kts
19-Apr-20 15:26 39.630566 -105.095514 274 13182ft 97kts
19-Apr-20 15:27 39.633072 -105.132200 277 14445ft 118kts
19-Apr-20 15:28 39.638109 -105.179091 279 15471ft 135kts
19-Apr-20 15:29 39.644252 -105.230192 279 16326ft 146kts
19-Apr-20 15:30 39.651012 -105.285295 279 16911ft 153kts
19-Apr-20 15:31 39.658240 -105.344157 279 17049ft 169kts
19-Apr-20 15:32 39.665692 -105.404787 279 17045ft 165kts
19-Apr-20 15:33 39.672969 -105.464438 279 17038ft 164kts
19-Apr-20 15:34 39.680170 -105.523799 279 17030ft 164kts
19-Apr-20 15:35 39.686785 -105.578555 279 16964ft 166kts
19-Apr-20 15:36 39.692471 -105.625810 279 16952ft 164kts
19-Apr-20 15:37 39.692575 -105.684980 259 16983ft 165kts
19-Apr-20 15:38 39.680988 -105.743883 258 17004ft 166kts
19-Apr-20 15:39 39.668854 -105.802914 258 17031ft 166kts
19-Apr-20 15:40 39.656670 -105.861682 258 17054ft 166kts
19-Apr-20 15:41 39.644375 -105.920771 258 17056ft 166kts
19-Apr-20 15:42 39.637910 -105.979980 279 17057ft 164kts
19-Apr-20 15:43 39.646337 -106.039172 288 17055ft 164kts
19-Apr-20 15:44 39.663155 -106.095513 290 17053ft 164kts
19-Apr-20 15:45 39.680389 -106.151477 290 17056ft 164kts
19-Apr-20 15:46 39.697611 -106.207515 290 17061ft 164kts
19-Apr-20 15:47 39.714683 -106.263242 290 17064ft 164kts
19-Apr-20 15:48 39.733228 -106.318361 297 17066ft 164kts
19-Apr-20 15:49 39.756690 -106.370354 298 17058ft 165kts
19-Apr-20 15:50 39.780549 -106.422580 298 17050ft 165kts
19-Apr-20 15:51 39.804368 -106.474857 298 16948ft 170kts
19-Apr-20 15:52 39.830550 -106.533123 298 15838ft 191kts
19-Apr-20 15:53 39.816092 -106.590393 222 14734ft 200kts
19-Apr-20 15:54 39.762948 -106.615545 201 13620ft 197kts
19-Apr-20 15:55 39.717385 -106.633073 202 12486ft 133kts
19-Apr-20 15:56 39.689870 -106.661394 247 11446ft 132kts
19-Apr-20 15:57 39.676631 -106.704373 252 11041ft 120kts
19-Apr-20 15:58 39.665297 -106.747043 260 11019ft 121kts
19-Apr-20 15:59 39.656611 -106.789817 261 9760ft 124kts
19-Apr-20 16:00 39.652037 -106.830932 260 8511ft 109kts
19-Apr-20 16:01 39.647974 -106.868540 261 7551ft 100kts
19-Apr-20 16:02 39.644229 -106.902326 264 6604ft 73kts
19-Apr-20 16:03 39.642803 -106.915313 247 6549ft 22kts
19-Apr-20 16:04 39.641625 -106.915795 168 6549ft 0kts
19-Apr-20 16:05 39.641487 -106.911310 82 6549ft 21kts
19-Apr-20 16:06 39.640492 -106.908167 175 6549ft 0kts
19-Apr-20 16:07 39.640492 -106.908167 175 6549ft 0kts

Navigation Log

Ident Type
Flight plan parsing failed, navigation log unavailable